Time;durP1;ratioP1;P1;durP2;ratioP2;P2;SDS_P1;SDS_P2;PMS_P1;PMS_P2;Temp;Humidity;BMP_temperature;BMP_pressure;BME280_temperature;BME280_humidity;BME280_pressure;Samples;Min_cycle;Max_cycle;Signal;HPM_P1;HPM_P2
2022/03/21 00:01:18;;;;;;;215.00;125.38;;;;;;;23.69;100.00;97967.34;5026486;28;20107;-72
2022/03/21 00:04:07;;;;;;;200.85;123.38;;;;;;;23.68;100.00;97966.50;5012549;28;20057;-70
2022/03/21 00:06:49;;;;;;;220.75;124.60;;;;;;;23.66;100.00;97968.44;5033232;28;20045;-71
2022/03/21 00:09:43;;;;;;;227.57;126.38;;;;;;;23.68;100.00;97977.03;5007959;28;20226;-71
2022/03/21 00:12:33;;;;;;;222.95;125.60;;;;;;;23.68;100.00;97977.03;5007259;28;20593;-71
2022/03/21 00:15:23;;;;;;;240.00;126.75;;;;;;;23.64;100.00;97978.28;4999520;28;20103;-70
2022/03/21 00:18:05;;;;;;;237.17;130.50;;;;;;;23.63;100.00;97981.88;5011045;28;20129;-70
2022/03/21 00:20:56;;;;;;;236.93;127.05;;;;;;;23.61;100.00;97987.31;5008176;28;20279;-72
2022/03/21 00:23:51;;;;;;;216.18;125.80;;;;;;;23.60;100.00;97984.81;5026056;28;20431;-71
2022/03/21 00:26:26;;;;;;;220.30;126.70;;;;;;;23.58;100.00;97984.13;5040782;28;20049;-73
2022/03/21 00:29:28;;;;;;;217.35;124.07;;;;;;;23.53;100.00;97991.63;5029575;28;20854;-71
2022/03/21 00:32:10;;;;;;;216.10;125.25;;;;;;;23.49;100.00;97990.25;5019906;28;20763;-71
2022/03/21 00:34:59;;;;;;;223.48;128.65;;;;;;;23.49;100.00;97990.25;5027838;28;20346;-71
2022/03/21 00:37:51;;;;;;;221.07;124.10;;;;;;;23.45;100.00;97989.69;5033701;28;20049;-71
2022/03/21 00:40:40;;;;;;;212.95;123.78;;;;;;;23.47;100.00;97994.78;5042840;28;20401;-71
2022/03/21 00:43:30;;;;;;;211.65;119.93;;;;;;;23.41;100.00;97990.09;5046991;28;20159;-71
2022/03/21 00:46:11;;;;;;;215.97;120.77;;;;;;;23.38;100.00;98001.75;5027353;28;20103;-70
2022/03/21 00:49:01;;;;;;;214.88;120.50;;;;;;;23.36;100.00;98002.84;5026132;28;20303;-71
2022/03/21 00:51:43;;;;;;;223.50;122.30;;;;;;;23.38;100.00;98009.66;5025990;28;20059;-71
2022/03/21 00:54:31;;;;;;;212.23;121.15;;;;;;;23.38;100.00;98017.53;5018513;28;20378;-73
2022/03/21 00:57:13;;;;;;;216.05;124.13;;;;;;;23.32;100.00;98014.63;5026645;28;20096;-69
2022/03/21 01:00:02;;;;;;;211.98;118.15;;;;;;;23.31;100.00;98018.25;5031171;28;20061;-71
2022/03/21 01:02:45;;;;;;;210.05;121.00;;;;;;;23.27;100.00;98021.16;5028976;28;20152;-70
2022/03/21 01:05:35;;;;;;;214.90;121.00;;;;;;;23.26;100.00;98026.53;5032026;28;20045;-71
2022/03/21 01:08:17;;;;;;;210.98;123.70;;;;;;;23.25;100.00;98025.69;5026596;28;20185;-70
2022/03/21 01:11:12;;;;;;;225.85;126.35;;;;;;;23.27;100.00;98039.53;5012198;28;20055;-72
2022/03/21 01:13:48;;;;;;;241.48;128.75;;;;;;;23.23;100.00;98032.91;5025290;28;20055;-71
2022/03/21 01:16:46;;;;;;;221.18;127.18;;;;;;;23.27;100.00;98042.16;5009966;28;20052;-70
2022/03/21 01:19:21;;;;;;;231.52;127.35;;;;;;;23.32;100.00;98039.09;5024374;28;20049;-71
2022/03/21 01:22:16;;;;;;;231.30;133.57;;;;;;;23.35;100.00;98051.16;5024322;28;20092;-71
2022/03/21 01:24:51;;;;;;;248.20;141.55;;;;;;;23.33;100.00;98045.19;5010091;28;20045;-72
2022/03/21 01:27:41;;;;;;;235.52;139.93;;;;;;;23.34;100.00;98050.31;5026477;28;20627;-72
2022/03/21 01:30:24;;;;;;;235.17;139.50;;;;;;;23.39;100.00;98057.78;5025526;28;20049;-72
2022/03/21 01:33:13;;;;;;;234.77;136.80;;;;;;;23.46;100.00;98058.88;5023680;28;20115;-72
2022/03/21 01:36:02;;;;;;;229.32;129.73;;;;;;;23.48;100.00;98067.44;5030027;28;20062;-69
2022/03/21 01:38:44;;;;;;;221.15;129.48;;;;;;;23.53;100.00;98071.34;5036243;28;20052;-69
2022/03/21 01:41:33;;;;;;;202.82;125.43;;;;;;;23.58;100.00;98078.81;5044572;28;20049;-70
2022/03/21 01:44:16;;;;;;;208.68;126.40;;;;;;;23.63;100.00;98092.34;5028166;28;20059;-69
2022/03/21 01:47:05;;;;;;;199.85;123.50;;;;;;;23.70;100.00;98093.47;5035864;28;20561;-70
2022/03/21 01:49:47;;;;;;;202.07;120.53;;;;;;;23.75;100.00;98093.84;5028763;28;20499;-70
2022/03/21 01:52:36;;;;;;;204.00;123.15;;;;;;;23.82;100.00;98102.81;5026842;28;20388;-68
2022/03/21 01:58:25;;;;;;;200.90;119.90;;;;;;;23.94;100.00;98106.13;5032893;28;20115;-69
2022/03/21 02:01:08;;;;;;;200.33;123.60;;;;;;;24.11;100.00;98112.41;5040231;28;20053;-70
2022/03/21 02:03:58;;;;;;;196.70;119.15;;;;;;;24.26;100.00;98105.75;5032721;28;20294;-70
2022/03/21 02:06:53;;;;;;;197.43;115.22;;;;;;;24.39;100.00;98116.75;5027988;28;20392;-70
2022/03/21 02:09:35;;;;;;;182.38;113.20;;;;;;;24.46;100.00;98117.00;5023899;28;20045;-70
2022/03/21 02:12:24;;;;;;;175.23;109.63;;;;;;;24.57;100.00;98119.44;5005191;28;20049;-70
2022/03/21 02:15:06;;;;;;;179.13;110.40;;;;;;;24.75;100.00;98131.66;5023724;28;20057;-71
2022/03/21 02:17:59;;;;;;;183.68;109.40;;;;;;;24.90;100.00;98141.69;5040686;28;20136;-70
2022/03/21 02:20:42;;;;;;;178.65;107.68;;;;;;;25.14;100.00;98141.97;5042629;28;20052;-70
2022/03/21 02:23:37;;;;;;;180.25;113.43;;;;;;;25.31;100.00;98145.56;5043395;28;20059;-71
2022/03/21 02:26:26;;;;;;;177.93;110.95;;;;;;;25.49;100.00;98149.84;5042827;28;20044;-71
2022/03/21 02:29:10;;;;;;;182.30;112.53;;;;;;;25.59;100.00;98156.88;5042389;28;20711;-69
2022/03/21 02:31:59;;;;;;;186.02;114.25;;;;;;;25.79;100.00;98158.34;5035670;28;20512;-71
2022/03/21 02:34:44;;;;;;;219.20;135.38;;;;;;;25.80;100.00;98166.09;5027086;28;20123;-70
2022/03/21 02:37:32;;;;;;;221.82;138.05;;;;;;;25.93;100.00;98171.00;5034111;28;20053;-71
2022/03/21 02:40:16;;;;;;;234.27;141.07;;;;;;;25.92;100.00;98177.25;5043289;28;20051;-70
2022/03/21 02:43:05;;;;;;;225.40;137.90;;;;;;;25.94;100.00;98177.09;5003523;28;20480;-71
2022/03/21 02:45:47;;;;;;;215.73;140.55;;;;;;;26.01;100.00;98180.78;5035835;28;20726;-72
2022/03/21 02:48:42;;;;;;;228.15;142.27;;;;;;;26.18;100.00;98183.34;5032406;28;20052;-71
2022/03/21 02:51:22;;;;;;;216.63;134.15;;;;;;;26.14;100.00;98189.94;5044785;28;20053;-72
2022/03/21 02:54:13;;;;;;;200.63;124.45;;;;;;;26.34;100.00;98198.47;5044405;28;20045;-71
2022/03/21 02:56:57;;;;;;;204.73;123.07;;;;;;;26.41;100.00;98194.25;5035914;28;20072;-70
2022/03/21 02:59:45;;;;;;;201.93;118.70;;;;;;;26.40;100.00;98203.16;5029446;28;20045;-72
2022/03/21 03:02:35;;;;;;;182.32;112.00;;;;;;;26.55;100.00;98206.84;4990311;28;20754;-71
2022/03/21 03:05:30;;;;;;;191.07;115.07;;;;;;;26.75;100.00;98212.72;5005106;28;20430;-71
2022/03/21 03:08:05;;;;;;;175.88;107.47;;;;;;;26.94;100.00;98216.94;4996471;28;20116;-70
2022/03/21 03:11:00;;;;;;;171.18;100.63;;;;;;;26.93;100.00;98217.94;5006148;28;20498;-70
2022/03/21 03:13:35;;;;;;;157.90;93.88;;;;;;;26.93;100.00;98216.13;5027983;28;20847;-71
2022/03/21 03:16:23;;;;;;;162.27;102.53;;;;;;;27.11;100.00;98228.41;5020707;28;20432;-71
2022/03/21 03:19:06;;;;;;;124.43;78.05;;;;;;;27.05;99.39;98232.53;5023782;28;20050;-70
2022/03/21 03:21:56;;;;;;;132.10;79.85;;;;;;;27.17;95.98;98244.44;5027782;28;20053;-70
2022/03/21 03:24:40;;;;;;;106.78;64.30;;;;;;;27.20;84.74;98251.25;5030347;28;20091;-71
2022/03/21 03:27:30;;;;;;;115.10;63.10;;;;;;;27.36;87.02;98243.34;5028579;28;20045;-70
2022/03/21 03:30:13;;;;;;;100.70;62.28;;;;;;;27.53;84.21;98249.50;5021421;28;20056;-70
2022/03/21 03:33:02;;;;;;;123.82;81.90;;;;;;;27.75;100.00;98252.34;5026204;28;20202;-71
2022/03/21 03:35:50;;;;;;;129.10;82.53;;;;;;;27.75;94.18;98260.31;5025492;28;20521;-72
2022/03/21 03:38:32;;;;;;;82.20;49.50;;;;;;;27.73;74.06;98270.22;5024887;28;20118;-70
2022/03/21 03:41:22;;;;;;;70.07;39.22;;;;;;;27.79;68.84;98277.50;5021407;28;20053;-70
2022/03/21 03:44:10;;;;;;;92.90;53.63;;;;;;;27.98;71.81;98280.81;5024126;28;20573;-70
2022/03/21 03:46:53;;;;;;;112.32;72.70;;;;;;;28.16;93.55;98273.56;5027741;28;20114;-71
2022/03/21 03:49:41;;;;;;;97.30;58.10;;;;;;;28.17;69.15;98285.81;5027045;28;20056;-70
2022/03/21 03:52:30;;;;;;;58.17;33.70;;;;;;;28.34;67.81;98287.44;5024717;28;20053;-70
2022/03/21 03:55:18;;;;;;;59.20;32.28;;;;;;;28.58;62.89;98296.34;5027579;28;20539;-70
2022/03/21 03:58:01;;;;;;;51.95;29.17;;;;;;;28.63;54.59;98296.69;5026067;28;20159;-69
2022/03/21 04:00:56;;;;;;;64.22;34.38;;;;;;;28.91;60.91;98295.28;5018778;28;20049;-70
2022/03/21 04:03:45;;;;;;;66.13;33.92;;;;;;;29.00;53.99;98304.03;5011648;28;20069;-70
2022/03/21 04:06:35;;;;;;;57.00;30.73;;;;;;;29.37;53.58;98301.59;5018647;28;20114;-70
2022/03/21 04:09:17;;;;;;;62.60;35.10;;;;;;;29.60;61.55;98297.16;5027172;28;20049;-70
2022/03/21 04:12:13;;;;;;;66.68;31.95;;;;;;;29.66;50.12;98306.22;5007648;28;20389;-70
2022/03/21 04:14:49;;;;;;;69.63;39.00;;;;;;;29.95;57.77;98310.84;5007798;28;20084;-70
2022/03/21 04:17:37;;;;;;;74.32;42.88;;;;;;;30.22;61.57;98306.84;5006861;28;20053;-70
2022/03/21 04:20:23;;;;;;;68.95;39.40;;;;;;;30.68;54.55;98319.03;5007016;28;20045;-71
2022/03/21 04:23:18;;;;;;;69.00;40.78;;;;;;;30.76;63.12;98316.28;5000518;28;20229;-71
2022/03/21 04:25:53;;;;;;;69.75;42.30;;;;;;;31.05;57.43;98323.44;5014839;28;20436;-70
2022/03/21 04:28:42;;;;;;;64.88;36.85;;;;;;;31.11;50.26;98329.91;5004822;28;20045;-70
2022/03/21 04:31:31;;;;;;;54.22;31.77;;;;;;;31.42;45.94;98337.66;5005677;28;20076;-69
2022/03/21 04:34:12;;;;;;;60.97;36.60;;;;;;;31.88;50.90;98331.03;5005771;28;20058;-70
2022/03/21 04:37:02;;;;;;;56.80;31.27;;;;;;;31.81;48.30;98337.31;5006917;28;20140;-69
2022/03/21 04:39:52;;;;;;;50.58;30.10;;;;;;;32.15;51.86;98334.81;5006546;28;20676;-71
2022/03/21 04:42:34;;;;;;;58.28;36.28;;;;;;;32.37;53.86;98326.78;4993466;28;20042;-69
2022/03/21 04:45:29;;;;;;;54.47;28.05;;;;;;;32.35;42.72;98334.13;4996795;28;20046;-69
2022/03/21 04:48:05;;;;;;;59.40;28.17;;;;;;;32.30;42.14;98343.56;4999157;28;20514;-70
2022/03/21 04:50:53;;;;;;;65.40;29.10;;;;;;;32.64;47.72;98339.31;5004009;28;20156;-68
2022/03/21 04:53:43;;;;;;;57.28;30.38;;;;;;;32.79;44.79;98333.91;5004147;28;20058;-71
2022/03/21 04:56:31;;;;;;;52.22;28.98;;;;;;;32.79;46.63;98339.22;4986391;28;20050;-71
2022/03/21 04:59:14;;;;;;;60.43;29.33;;;;;;;33.09;46.13;98331.78;4999440;28;20057;-70
2022/03/21 05:02:10;;;;;;;49.95;26.60;;;;;;;32.92;42.28;98337.47;4991084;28;20046;-69
2022/03/21 05:04:46;;;;;;;49.63;27.25;;;;;;;33.23;45.68;98344.22;5004178;28;20141;-69
2022/03/21 05:07:52;;;;;;;63.90;26.30;;;;;;;33.12;43.53;98347.44;5004453;28;20053;-69
2022/03/21 05:10:42;;;;;;;52.42;24.58;;;;;;;33.14;41.19;98348.03;5004390;28;20541;-69
2022/03/21 05:13:23;;;;;;;55.78;27.58;;;;;;;33.31;48.69;98344.03;5018947;28;20055;-70
2022/03/21 05:16:14;;;;;;;48.08;23.55;;;;;;;32.79;42.37;98348.06;5021999;28;20045;-70
2022/03/21 05:18:55;;;;;;;44.03;24.13;;;;;;;33.14;42.59;98350.72;5024286;28;20072;-69
2022/03/21 05:21:44;;;;;;;53.67;26.33;;;;;;;33.50;42.94;98353.19;5024712;28;20483;-69
2022/03/21 05:36:40;;;;;;;49.58;28.67;;;;;;;33.29;45.47;98346.09;5024059;28;20060;-69
2022/03/21 05:39:30;;;;;;;43.88;26.70;;;;;;;33.42;45.16;98343.50;5006097;28;20168;-69
2022/03/21 05:42:11;;;;;;;47.35;25.60;;;;;;;33.54;49.04;98338.38;5003829;28;20415;-69
2022/03/21 05:45:01;;;;;;;47.50;27.40;;;;;;;33.48;50.14;98337.34;5020205;28;20046;-70
2022/03/21 05:50:51;;;;;;;69.18;29.33;;;;;;;33.51;50.72;98336.94;5023857;28;20041;-69
2022/03/21 05:53:40;;;;;;;61.05;29.33;;;;;;;33.33;45.60;98340.16;5023618;28;20144;-69
2022/03/21 05:56:27;;;;;;;59.72;29.75;;;;;;;33.69;47.55;98336.34;5012049;28;20037;-69
2022/03/21 06:02:16;;;;;;;63.35;28.50;;;;;;;33.65;50.89;98329.78;5023216;28;20050;-70
2022/03/21 06:05:06;;;;;;;47.85;29.30;;;;;;;33.63;50.58;98329.16;5024771;28;20051;-68
2022/03/21 06:07:47;;;;;;;;;;;;;;;33.72;48.08;98323.47;5026310;28;20049;-73
2022/03/21 06:10:38;;;;;;;55.60;28.75;;;;;;;33.66;48.21;98334.09;5006198;28;19935;-70
2022/03/21 06:13:26;;;;;;;54.88;29.60;;;;;;;33.12;47.55;98328.75;5020672;28;20853;-70
2022/03/21 06:16:22;;;;;;;60.05;30.58;;;;;;;33.44;50.69;98320.06;5005064;28;20457;-68
2022/03/21 06:19:00;;;;;;;54.50;28.83;;;;;;;33.47;52.27;98319.66;5006470;28;20049;-67
2022/03/21 06:21:49;;;;;;;50.97;30.40;;;;;;;33.36;52.31;98320.25;5016359;28;20053;-67
2022/03/21 06:24:31;;;;;;;47.50;28.73;;;;;;;33.03;58.79;98312.88;5025363;28;20065;-67
2022/03/21 06:27:29;;;;;;;52.33;30.73;;;;;;;32.62;56.27;98314.66;5033101;28;20045;-70
2022/03/21 06:30:09;;;;;;;43.55;30.80;;;;;;;32.42;63.86;98309.16;5034247;28;20686;-67
2022/03/21 06:33:04;;;;;;;48.25;32.22;;;;;;;32.04;57.27;98305.97;5032779;28;20492;-69
2022/03/21 06:35:39;;;;;;;46.63;32.13;;;;;;;31.59;65.23;98307.13;5017147;28;20053;-67
2022/03/21 06:38:30;;;;;;;54.53;33.95;;;;;;;31.83;68.43;98300.66;5033697;28;20539;-67
2022/03/21 06:41:14;;;;;;;48.78;32.08;;;;;;;31.49;65.43;98312.75;5034362;28;20076;-66
2022/03/21 06:44:09;;;;;;;53.42;33.50;;;;;;;31.49;69.48;98304.78;5033055;28;20389;-68
2022/03/21 06:46:44;;;;;;;57.97;36.10;;;;;;;31.37;71.99;98292.13;5034106;28;20068;-67
2022/03/21 06:49:33;;;;;;;61.63;38.53;;;;;;;31.17;69.97;98290.06;5024123;28;20049;-67
2022/03/21 06:52:22;;;;;;;54.25;36.58;;;;;;;31.07;72.95;98286.03;5035852;28;20045;-68
2022/03/21 06:55:05;;;;;;;58.28;36.47;;;;;;;30.96;72.57;98283.81;5043874;28;20046;-67
2022/03/21 06:57:55;;;;;;;58.45;35.67;;;;;;;30.99;65.24;98294.06;5046766;28;20144;-69
2022/03/21 07:00:46;;;;;;;58.40;34.15;;;;;;;31.14;64.71;98287.75;5046478;28;20066;-67
2022/03/21 07:03:35;;;;;;;58.92;33.92;;;;;;;31.13;67.87;98285.31;5050529;28;20049;-67
2022/03/21 07:06:17;;;;;;;58.53;35.95;;;;;;;31.13;72.60;98277.31;5045870;28;20472;-66
2022/03/21 07:09:10;;;;;;;58.28;36.25;;;;;;;30.94;71.96;98283.16;5047095;28;20064;-67
2022/03/21 07:11:58;;;;;;;53.95;34.83;;;;;;;30.64;72.36;98275.22;5042374;28;20049;-68
2022/03/21 07:15:07;;;;;;;53.28;34.72;;;;;;;30.60;74.65;98270.41;5030646;28;20060;-67
2022/03/21 07:17:56;;;;;;;53.22;35.08;;;;;;;30.18;75.15;98268.31;5047363;28;20041;-67
2022/03/21 07:20:44;;;;;;;46.90;31.77;;;;;;;30.30;72.00;98267.72;5033657;28;20049;-67
2022/03/21 07:23:25;;;;;;;41.65;29.52;;;;;;;30.04;74.41;98260.13;5033688;28;20102;-67
2022/03/21 07:26:15;;;;;;;46.03;29.35;;;;;;;30.39;73.42;98260.47;5047328;28;20703;-68
2022/03/21 07:28:57;;;;;;;44.75;29.77;;;;;;;30.51;78.38;98255.56;5037697;28;20321;-69
2022/03/21 07:31:46;;;;;;;51.35;29.52;;;;;;;30.43;78.15;98256.44;5028126;28;20077;-68
2022/03/21 07:34:27;;;;;;;47.83;26.58;;;;;;;30.31;75.37;98252.59;5034094;28;20128;-69
2022/03/21 07:37:17;;;;;;;37.45;24.98;;;;;;;30.21;74.61;98244.03;5031342;28;20600;-68
2022/03/21 07:40:10;;;;;;;39.55;26.48;;;;;;;30.03;75.32;98249.69;5025985;28;20053;-68
2022/03/21 07:42:54;;;;;;;40.50;25.40;;;;;;;30.33;75.00;98245.25;5027192;28;20065;-68
2022/03/21 07:48:44;;;;;;;41.58;26.08;;;;;;;29.95;74.94;98237.28;5032806;28;20080;-70
2022/03/21 07:51:32;;;;;;;44.42;24.25;;;;;;;29.87;74.10;98240.00;5027217;28;20049;-67
2022/03/21 07:54:21;;;;;;;41.45;26.58;;;;;;;29.62;77.55;98238.53;5026281;28;20037;-68
2022/03/21 07:57:10;;;;;;;50.33;25.80;;;;;;;29.57;79.74;98236.41;5026400;28;20042;-66
2022/03/21 07:59:52;;;;;;;41.40;24.30;;;;;;;29.38;78.31;98222.75;5006652;28;20362;-68
2022/03/21 08:02:46;;;;;;;33.55;24.92;;;;;;;29.49;79.99;98220.53;5007208;28;20149;-69
2022/03/21 08:05:35;;;;;;;43.17;24.00;;;;;;;29.14;77.32;98219.22;4990111;28;20132;-67
2022/03/21 08:08:16;;;;;;;42.50;24.13;;;;;;;29.14;80.69;98219.22;5014497;28;20099;-67
2022/03/21 08:11:12;;;;;;;41.28;23.23;;;;;;;29.11;81.36;98210.81;5027853;28;20068;-68
2022/03/21 08:14:08;;;;;;;33.35;23.65;;;;;;;29.18;81.72;98204.63;5026544;28;20654;-68
2022/03/21 08:16:43;;;;;;;38.10;21.23;;;;;;;29.25;74.52;98205.56;5024827;28;20048;-68
2022/03/21 08:19:38;;;;;;;37.38;21.98;;;;;;;29.35;64.11;98212.47;5030069;28;20044;-69
2022/03/21 08:22:15;;;;;;;40.20;21.80;;;;;;;30.33;55.77;98208.84;5031974;28;20546;-68
2022/03/21 08:25:04;;;;;;;34.78;19.88;;;;;;;31.01;52.17;98213.06;5019943;28;20053;-66
2022/03/21 08:27:46;;;;;;;37.65;18.88;;;;;;;31.59;49.24;98205.09;5026885;28;20044;-68
2022/03/21 08:30:42;;;;;;;32.53;18.92;;;;;;;32.01;49.09;98201.56;5026235;28;20056;-68
2022/03/21 08:33:17;;;;;;;39.97;21.67;;;;;;;32.22;49.52;98191.69;5018603;28;20067;-69
2022/03/21 08:36:05;;;;;;;43.88;22.35;;;;;;;32.29;46.81;98195.22;5021059;28;20154;-67
2022/03/21 08:38:48;;;;;;;38.53;21.48;;;;;;;32.42;49.00;98193.66;5008696;28;20136;-68
2022/03/21 08:41:37;;;;;;;40.97;21.10;;;;;;;32.56;48.27;98185.53;5025304;28;20052;-69
2022/03/21 08:44:27;;;;;;;35.45;21.75;;;;;;;32.65;46.59;98180.84;5022391;28;20080;-68
2022/03/21 08:47:16;;;;;;;36.45;20.08;;;;;;;32.67;45.12;98174.28;5008621;28;20099;-68
2022/03/21 08:49:58;;;;;;;43.00;21.73;;;;;;;32.85;45.53;98176.44;5025650;28;20068;-68
2022/03/21 08:52:56;;;;;;;39.95;20.67;;;;;;;32.91;45.49;98170.31;5025321;28;20052;-68
2022/03/21 08:55:31;;;;;;;47.10;23.25;;;;;;;33.01;46.59;98169.94;5025349;28;20048;-69
2022/03/21 08:58:26;;;;;;;35.45;21.90;;;;;;;32.83;46.64;98170.47;5025909;28;20057;-66
2022/03/21 09:01:01;;;;;;;42.22;21.50;;;;;;;32.68;45.45;98172.44;5026115;28;20112;-68
2022/03/21 09:03:56;;;;;;;41.05;20.70;;;;;;;32.87;45.03;98161.06;5019823;28;20064;-68
2022/03/21 09:06:31;;;;;;;45.72;20.95;;;;;;;32.85;45.54;98156.94;5023622;28;20056;-70
2022/03/21 09:09:20;;;;;;;48.33;21.52;;;;;;;32.89;46.13;98160.84;5025557;28;20088;-69
2022/03/21 09:12:08;;;;;;;50.00;21.25;;;;;;;32.72;46.36;98156.91;4998483;28;20050;-68
2022/03/21 09:15:03;;;;;;;47.85;20.52;;;;;;;32.67;46.69;98152.13;5018975;28;20080;-68
2022/03/21 09:17:39;;;;;;;41.75;21.23;;;;;;;32.77;45.81;98152.59;5033717;28;20056;-70
2022/03/21 09:20:34;;;;;;;51.28;21.50;;;;;;;32.76;47.48;98145.63;5023840;28;20156;-69
2022/03/21 09:23:09;;;;;;;37.92;20.40;;;;;;;32.77;46.15;98146.44;5024375;28;20075;-68
2022/03/21 09:26:08;;;;;;;46.70;21.10;;;;;;;32.66;45.16;98147.78;5018146;28;20045;-69
2022/03/21 09:28:43;;;;;;;38.17;19.35;;;;;;;32.69;48.15;98144.78;5019306;28;20041;-69
2022/03/21 09:31:33;;;;;;;48.08;20.48;;;;;;;32.59;46.89;98144.28;5021988;28;20103;-69
2022/03/21 09:34:22;;;;;;;37.20;19.70;;;;;;;32.62;48.82;98139.38;5029341;28;20064;-68
2022/03/21 09:37:18;;;;;;;41.42;20.70;;;;;;;32.68;47.07;98141.28;5016266;28;20063;-70
2022/03/21 09:39:55;;;;;;;41.58;20.48;;;;;;;32.74;47.38;98136.16;5014073;28;20137;-68
2022/03/21 09:42:44;;;;;;;38.47;20.17;;;;;;;32.80;47.51;98135.38;5024901;28;20041;-67
2022/03/21 09:45:34;;;;;;;41.92;20.63;;;;;;;32.83;45.78;98134.97;5042448;28;20044;-66
2022/03/21 09:48:19;;;;;;;38.35;19.80;;;;;;;32.86;45.36;98130.06;5033376;28;20053;-69
2022/03/21 09:51:16;;;;;;;38.88;19.75;;;;;;;32.75;46.00;98135.13;5009388;28;20122;-69
2022/03/21 09:54:04;;;;;;;37.00;19.45;;;;;;;32.82;43.74;98138.66;5023741;28;20059;-70
2022/03/21 09:56:55;;;;;;;40.65;19.65;;;;;;;32.88;44.72;98125.34;5031912;28;20312;-68
2022/03/21 09:59:36;;;;;;;39.65;17.15;;;;;;;32.82;44.60;98120.78;5038895;28;20056;-68
2022/03/21 10:02:42;;;;;;;35.05;17.90;;;;;;;32.86;43.93;98135.38;5023365;28;20049;-68
2022/03/21 10:05:42;;;;;;;39.45;17.85;;;;;;;32.75;45.23;98121.78;5036180;28;20128;-68
2022/03/21 10:08:21;;;;;;;41.42;17.98;;;;;;;32.50;45.80;98126.78;5042847;28;20462;-69
2022/03/21 10:11:10;;;;;;;41.08;17.85;;;;;;;32.40;45.32;98113.84;5041925;28;20761;-68
2022/03/21 10:13:53;;;;;;;49.42;19.85;;;;;;;32.47;45.50;98113.88;5007054;28;20462;-70
2022/03/21 10:17:01;;;;;;;44.53;19.35;;;;;;;32.47;45.05;98121.88;5022918;28;20542;-69
2022/03/21 10:19:58;;;;;;;47.42;21.45;;;;;;;32.44;44.97;98111.59;5020502;28;20048;-68
2022/03/21 10:22:48;;;;;;;47.08;20.55;;;;;;;32.59;45.94;98122.94;5018326;28;20045;-69
2022/03/21 10:25:31;;;;;;;44.95;22.85;;;;;;;32.51;45.57;98121.28;5015036;28;20056;-69
2022/03/21 10:28:42;;;;;;;43.60;21.83;;;;;;;32.40;45.28;98113.03;5023127;28;20046;-68
2022/03/21 10:31:43;;;;;;;41.95;20.20;;;;;;;32.35;45.26;98110.13;5022500;28;20056;-69
2022/03/21 10:34:34;;;;;;;39.45;21.17;;;;;;;32.21;46.32;98114.56;5014335;28;20135;-67
2022/03/21 10:37:16;;;;;;;43.42;21.85;;;;;;;32.19;47.83;98106.75;5021685;28;20127;-67
2022/03/21 10:40:18;;;;;;;47.05;22.70;;;;;;;32.08;48.71;98103.81;5021875;28;20049;-69
2022/03/21 10:43:04;;;;;;;45.45;23.23;;;;;;;32.09;48.90;98100.91;5006314;28;20164;-68
2022/03/21 10:45:55;;;;;;;56.08;24.20;;;;;;;32.13;47.50;98101.38;5024194;28;20046;-69
2022/03/21 10:48:40;;;;;;;43.70;25.80;;;;;;;32.21;48.73;98094.06;5022974;28;20111;-68
2022/03/21 10:51:54;;;;;;;44.92;24.33;;;;;;;32.17;49.71;98091.97;5022535;28;20049;-68
2022/03/21 10:54:51;;;;;;;47.13;26.00;;;;;;;32.11;50.50;98093.56;5023189;28;20280;-67
2022/03/21 10:57:39;;;;;;;47.65;25.75;;;;;;;32.04;51.24;98091.88;5023447;28;20045;-69
2022/03/21 11:00:30;;;;;;;50.00;26.95;;;;;;;31.97;50.95;98086.50;5023041;28;20049;-68
2022/03/21 11:03:17;;;;;;;49.42;27.77;;;;;;;31.97;53.30;98080.34;5019420;28;20049;-70
2022/03/21 11:06:06;;;;;;;50.20;28.05;;;;;;;31.95;53.21;98083.22;5022163;28;20107;-69
2022/03/21 11:08:51;;;;;;;52.53;26.42;;;;;;;31.98;53.64;98088.16;5021519;28;20046;-68
2022/03/21 11:11:46;;;;;;;61.00;28.23;;;;;;;31.98;53.54;98087.34;5018455;28;20045;-67
2022/03/21 11:14:41;;;;;;;58.83;26.20;;;;;;;31.81;52.93;98085.00;5022801;28;20070;-67
2022/03/21 11:17:30;;;;;;;56.85;27.90;;;;;;;31.82;53.92;98083.16;5024322;28;20124;-68
2022/03/21 11:20:15;;;;;;;55.80;27.60;;;;;;;31.82;54.95;98083.16;5028303;28;20053;-67
2022/03/21 11:23:06;;;;;;;58.03;27.13;;;;;;;31.79;54.92;98079.03;5017577;28;20418;-68
2022/03/21 11:25:56;;;;;;;55.10;28.88;;;;;;;31.70;55.60;98079.34;5027748;28;20041;-68
2022/03/21 11:29:21;;;;;;;52.50;29.02;;;;;;;31.66;55.10;98084.28;5016529;28;20052;-68
2022/03/21 11:32:24;;;;;;;52.10;28.10;;;;;;;31.52;54.93;98078.00;5013848;28;20046;-68
2022/03/21 11:35:17;;;;;;;53.42;27.48;;;;;;;31.52;55.97;98080.66;5018793;28;20495;-68
2022/03/21 11:38:29;;;;;;;53.03;24.60;;;;;;;31.47;50.86;98080.41;5027145;28;20053;-68
2022/03/21 11:41:22;;;;;;;47.78;22.58;;;;;;;31.45;49.88;98087.75;5011692;28;20068;-70
2022/03/21 11:44:06;;;;;;;45.45;21.65;;;;;;;31.43;47.70;98095.13;5021015;28;20069;-69
2022/03/21 11:46:55;;;;;;;43.17;21.35;;;;;;;31.41;48.14;98081.19;5029284;28;20060;-68
2022/03/21 11:49:44;;;;;;;48.08;24.60;;;;;;;31.37;50.22;98077.25;5022661;28;20638;-68
2022/03/21 11:52:26;;;;;;;52.58;24.77;;;;;;;31.34;51.38;98085.63;5017146;28;20053;-68
2022/03/21 11:55:29;;;;;;;47.30;24.20;;;;;;;31.32;52.30;98081.50;5015347;28;20077;-67
2022/03/21 11:58:30;;;;;;;50.67;23.30;;;;;;;31.27;52.26;98089.25;5021701;28;20148;-68
2022/03/21 12:01:18;;;;;;;45.30;22.13;;;;;;;31.19;52.21;98082.22;5025520;28;20057;-68
2022/03/21 12:04:02;;;;;;;47.75;22.23;;;;;;;31.13;51.62;98088.31;5027012;28;20049;-68
2022/03/21 12:06:49;;;;;;;44.20;22.17;;;;;;;31.09;52.33;98084.38;5027222;28;20057;-68
2022/03/21 12:09:52;;;;;;;43.28;20.77;;;;;;;30.96;51.19;98086.91;5025602;28;20049;-68
2022/03/21 12:12:47;;;;;;;45.88;19.92;;;;;;;30.88;50.71;98084.34;5038271;28;20053;-70
2022/03/21 12:15:36;;;;;;;39.83;20.42;;;;;;;30.80;51.14;98078.16;5027920;28;20052;-68
2022/03/21 12:18:46;;;;;;;44.30;18.50;;;;;;;30.71;50.44;98089.09;5025063;28;20057;-68
2022/03/21 12:21:28;;;;;;;43.03;19.08;;;;;;;30.62;51.80;98079.56;5027227;28;21070;-67
2022/03/21 12:24:20;;;;;;;38.88;19.70;;;;;;;30.59;50.31;98087.91;5027218;28;20057;-69
2022/03/21 12:27:06;;;;;;;54.30;21.73;;;;;;;30.52;50.64;98090.50;5024925;28;20140;-70
2022/03/21 12:29:55;;;;;;;39.42;18.25;;;;;;;30.41;50.59;98083.78;5024093;28;20064;-69
2022/03/21 12:32:48;;;;;;;39.65;18.00;;;;;;;30.33;49.90;98080.44;5006779;28;20049;-68
2022/03/21 12:35:42;;;;;;;33.53;17.98;;;;;;;30.26;50.13;98080.34;5029289;28;20068;-68
2022/03/21 12:38:34;;;;;;;;;;;;;;;30.20;50.98;98086.41;5018079;28;20132;-68
2022/03/21 12:41:22;;;;;;;42.78;19.08;;;;;;;30.10;51.32;98085.00;5012025;28;19968;-68
2022/03/21 12:44:04;;;;;;;34.85;19.02;;;;;;;30.03;53.03;98083.09;5037637;28;20151;-68
2022/03/21 12:47:03;;;;;;;40.50;19.52;;;;;;;29.94;54.62;98086.84;5043633;28;20057;-68
2022/03/21 12:50:05;;;;;;;42.72;22.17;;;;;;;29.67;63.02;98080.31;5005310;28;20053;-68
2022/03/21 12:52:48;;;;;;;45.92;23.33;;;;;;;29.36;67.71;98090.25;4991404;28;20061;-69
2022/03/21 12:55:43;;;;;;;46.90;22.60;;;;;;;28.90;72.69;98086.75;5027475;28;20249;-68
2022/03/21 12:58:19;;;;;;;43.30;23.15;;;;;;;28.54;75.16;98081.16;5014317;28;20489;-67
2022/03/21 13:01:08;;;;;;;39.90;22.42;;;;;;;28.21;76.74;98085.78;5034810;28;20053;-66
2022/03/21 13:10:33;;;;;;;44.55;21.85;;;;;;;27.60;82.92;98089.06;5037956;28;20115;-68
2022/03/21 13:13:14;;;;;;;52.60;21.98;;;;;;;27.48;82.49;98088.53;5009920;28;20064;-66
2022/03/21 13:16:10;;;;;;;40.85;22.20;;;;;;;27.36;84.49;98092.53;5010078;28;20054;-67
2022/03/21 13:18:53;;;;;;;37.50;20.52;;;;;;;27.28;85.83;98097.81;4994862;28;20085;-68